createdAt,value
2022-10-05T00:00:14.808Z,8.30
2022-10-05T00:01:14.699Z,8.40
2022-10-05T00:02:14.537Z,10.50
2022-10-05T00:03:14.369Z,8.40
2022-10-05T00:04:14.554Z,7.90
2022-10-05T00:05:14.395Z,8.30
2022-10-05T00:06:14.338Z,6.40
2022-10-05T00:07:14.372Z,8.70
2022-10-05T00:08:14.319Z,8.60
2022-10-05T00:09:15.257Z,7.40
2022-10-05T00:10:14.297Z,7.30
2022-10-05T00:11:14.287Z,7.60
2022-10-05T00:12:14.276Z,6.50
2022-10-05T00:13:14.299Z,8.90
2022-10-05T00:14:14.251Z,7.00
2022-10-05T00:15:14.240Z,6.70
2022-10-05T00:16:14.274Z,7.60
2022-10-05T00:17:14.217Z,6.70
2022-10-05T00:18:14.224Z,7.10
2022-10-05T00:19:14.229Z,7.70
2022-10-05T00:20:14.222Z,8.40
2022-10-05T00:21:14.270Z,7.80
2022-10-05T00:22:14.260Z,8.10
2022-10-05T00:23:14.149Z,7.60
2022-10-05T00:24:14.155Z,9.70
2022-10-05T00:25:14.193Z,6.70
2022-10-05T00:26:14.132Z,6.60
2022-10-05T00:27:15.075Z,6.80
2022-10-05T00:28:14.148Z,7.70
2022-10-05T00:29:15.035Z,8.90
2022-10-05T00:30:14.102Z,7.50
2022-10-05T00:31:14.465Z,8.10
2022-10-05T00:32:14.187Z,6.80
2022-10-05T00:33:14.158Z,10.30
2022-10-05T00:34:14.076Z,6.80
2022-10-05T00:35:14.297Z,7.60
2022-10-05T00:36:14.005Z,8.30
2022-10-05T00:37:14.005Z,8.30
2022-10-05T00:38:13.981Z,8.10
2022-10-05T00:39:13.965Z,7.00
2022-10-05T00:40:13.966Z,7.60
2022-10-05T00:41:13.970Z,9.00
2022-10-05T00:42:14.222Z,7.90
2022-10-05T00:43:13.939Z,8.30
2022-10-05T00:44:13.909Z,7.80
2022-10-05T00:45:13.898Z,8.60
2022-10-05T00:46:13.974Z,7.30
2022-10-05T00:47:13.885Z,7.10
2022-10-05T00:48:13.862Z,6.50
2022-10-05T00:49:13.848Z,7.30
2022-10-05T00:50:13.853Z,8.60
2022-10-05T00:51:13.831Z,10.70
2022-10-05T00:52:13.841Z,7.10
2022-10-05T00:53:13.820Z,9.50
2022-10-05T00:54:18.162Z,9.50
2022-10-05T00:55:13.810Z,8.40
2022-10-05T00:56:13.785Z,7.60
2022-10-05T00:57:13.805Z,7.60
2022-10-05T00:58:13.770Z,7.10
2022-10-05T00:59:13.734Z,9.70
2022-10-05T01:00:13.749Z,9.10
2022-10-05T01:01:13.755Z,9.90
2022-10-05T01:02:13.723Z,8.90
2022-10-05T01:03:13.741Z,6.70
2022-10-05T01:04:13.695Z,8.80
2022-10-05T01:05:13.676Z,7.30
2022-10-05T01:06:13.667Z,8.30
2022-10-05T01:07:13.649Z,7.10
2022-10-05T01:08:13.659Z,8.30
2022-10-05T01:09:13.648Z,7.90
2022-10-05T01:10:13.626Z,9.50
2022-10-05T01:11:13.634Z,8.40
2022-10-05T01:12:13.596Z,7.00
2022-10-05T01:13:13.576Z,8.90
2022-10-05T01:14:13.576Z,8.10
2022-10-05T01:15:13.612Z,6.80
2022-10-05T01:16:13.616Z,8.10
2022-10-05T01:17:13.540Z,8.80
2022-10-05T01:18:13.534Z,6.80
2022-10-05T01:19:13.551Z,7.80
2022-10-05T01:20:13.548Z,7.90
2022-10-05T01:21:13.502Z,7.00
2022-10-05T01:22:13.487Z,7.60
2022-10-05T01:23:13.467Z,9.00
2022-10-05T01:24:13.467Z,8.80
2022-10-05T01:25:13.464Z,8.80
2022-10-05T01:26:13.491Z,8.10
2022-10-05T01:27:13.431Z,7.10
2022-10-05T01:28:13.458Z,8.40
2022-10-05T01:29:13.412Z,7.30
2022-10-05T01:30:13.402Z,7.60
2022-10-05T01:31:13.479Z,7.50
2022-10-05T01:32:13.413Z,7.50
2022-10-05T01:33:13.385Z,7.70
2022-10-05T01:34:13.352Z,7.90
2022-10-05T01:35:13.373Z,10.00
2022-10-05T01:36:13.353Z,8.50
2022-10-05T01:37:13.311Z,9.50
2022-10-05T01:38:13.329Z,8.00
2022-10-05T01:39:13.283Z,8.20
2022-10-05T01:40:13.293Z,9.40
2022-10-05T01:41:13.282Z,8.90
2022-10-05T01:42:14.239Z,9.10
2022-10-05T01:43:13.244Z,9.50
2022-10-05T01:44:13.290Z,8.40
2022-10-05T01:45:13.234Z,6.90
2022-10-05T01:46:13.265Z,10.30
2022-10-05T01:47:13.220Z,9.60
2022-10-05T01:48:13.186Z,9.20
2022-10-05T01:49:13.192Z,8.10
2022-10-05T01:50:13.200Z,10.00
2022-10-05T01:51:13.154Z,7.60
2022-10-05T01:52:13.145Z,8.60
2022-10-05T01:53:13.139Z,9.20
2022-10-05T01:54:13.136Z,8.10
2022-10-05T01:55:13.128Z,7.90
2022-10-05T01:56:13.143Z,8.80
2022-10-05T01:57:13.086Z,9.50
2022-10-05T01:58:13.086Z,9.10
2022-10-05T01:59:13.098Z,9.50
2022-10-05T02:00:13.059Z,9.50
2022-10-05T02:01:13.134Z,7.80
2022-10-05T02:02:13.119Z,9.00
2022-10-05T02:03:13.033Z,7.80
2022-10-05T02:04:24.425Z,8.10
2022-10-05T02:05:14.040Z,8.70
2022-10-05T02:06:12.991Z,7.80
2022-10-05T02:07:12.979Z,10.40
2022-10-05T02:08:12.982Z,10.50
2022-10-05T02:09:12.972Z,9.30
2022-10-05T02:10:12.941Z,9.60
2022-10-05T02:11:12.986Z,8.00
2022-10-05T02:12:12.939Z,6.90
2022-10-05T02:13:12.911Z,9.80
2022-10-05T02:14:12.895Z,8.70
2022-10-05T02:15:12.942Z,7.90
2022-10-05T02:16:12.975Z,7.70
2022-10-05T02:17:12.872Z,10.70
2022-10-05T02:18:12.872Z,15.10
2022-10-05T02:19:12.843Z,8.10
2022-10-05T02:20:12.834Z,8.70
2022-10-05T02:21:12.879Z,8.80
2022-10-05T02:22:12.809Z,9.30
2022-10-05T02:23:12.802Z,8.70
2022-10-05T02:24:12.788Z,8.80
2022-10-05T02:25:12.776Z,8.50
2022-10-05T02:26:12.766Z,7.70
2022-10-05T02:27:12.765Z,8.40
2022-10-05T02:28:12.850Z,7.60
2022-10-05T02:29:12.735Z,9.40
2022-10-05T02:30:16.362Z,9.10
2022-10-05T02:31:12.746Z,8.80
2022-10-05T02:32:12.721Z,10.10
2022-10-05T02:33:12.686Z,10.70
2022-10-05T02:34:12.670Z,8.70
2022-10-05T02:35:12.663Z,8.00
2022-10-05T02:36:12.676Z,11.90
2022-10-05T02:37:12.658Z,8.90
2022-10-05T02:38:12.637Z,9.70
2022-10-05T02:39:12.823Z,8.30
2022-10-05T02:40:12.614Z,8.80
2022-10-05T02:41:12.589Z,8.20
2022-10-05T02:42:12.584Z,11.00
2022-10-05T02:43:12.594Z,10.30
2022-10-05T02:44:12.557Z,9.80
2022-10-05T02:45:12.547Z,9.90
2022-10-05T02:46:12.592Z,11.80
2022-10-05T02:47:12.520Z,9.60
2022-10-05T02:48:12.532Z,10.40
2022-10-05T02:49:12.512Z,9.50
2022-10-05T02:50:12.488Z,8.50
2022-10-05T02:51:12.481Z,9.80
2022-10-05T02:52:12.487Z,9.20
2022-10-05T02:53:12.453Z,10.00
2022-10-05T02:54:12.467Z,10.20
2022-10-05T02:55:12.440Z,8.50
2022-10-05T02:56:12.422Z,11.00
2022-10-05T02:57:12.419Z,7.60
2022-10-05T02:58:12.393Z,8.80
2022-10-05T02:59:12.412Z,8.50
2022-10-05T03:00:12.397Z,9.70
2022-10-05T03:01:12.456Z,7.40
2022-10-05T03:02:12.456Z,9.70
2022-10-05T03:03:12.350Z,8.90
2022-10-05T03:04:12.328Z,8.40
2022-10-05T03:05:12.334Z,7.60
2022-10-05T03:06:12.304Z,8.80
2022-10-05T03:07:12.318Z,10.40
2022-10-05T03:08:12.320Z,11.50
2022-10-05T03:09:12.273Z,8.50
2022-10-05T03:10:12.257Z,8.50
2022-10-05T03:11:12.267Z,8.40
2022-10-05T03:12:12.241Z,8.50
2022-10-05T03:13:12.227Z,9.70
2022-10-05T03:14:12.228Z,8.70
2022-10-05T03:15:12.207Z,9.40
2022-10-05T03:16:12.351Z,7.90
2022-10-05T03:17:12.187Z,8.10
2022-10-05T03:18:12.177Z,8.70
2022-10-05T03:19:12.187Z,8.20
2022-10-05T03:20:12.150Z,8.90
2022-10-05T03:21:12.152Z,7.90
2022-10-05T03:22:12.122Z,7.60
2022-10-05T03:23:12.140Z,8.80
2022-10-05T03:24:12.110Z,8.60
2022-10-05T03:25:12.089Z,9.70
2022-10-05T03:26:12.083Z,7.90
2022-10-05T03:27:12.074Z,9.10
2022-10-05T03:28:12.140Z,8.80
2022-10-05T03:29:12.050Z,8.70
2022-10-05T03:30:12.040Z,7.30
2022-10-05T03:31:12.122Z,8.60
2022-10-05T03:32:12.010Z,9.60
2022-10-05T03:33:12.003Z,8.30
2022-10-05T03:34:12.029Z,7.00
2022-10-05T03:35:11.994Z,8.20
2022-10-05T03:36:11.984Z,8.60
2022-10-05T03:37:11.966Z,7.50
2022-10-05T03:38:11.943Z,8.60
2022-10-05T03:39:11.982Z,9.60
2022-10-05T03:40:11.924Z,8.30
2022-10-05T03:41:11.912Z,10.10
2022-10-05T03:42:11.932Z,9.50
2022-10-05T03:43:11.915Z,7.50
2022-10-05T03:44:11.907Z,9.20
2022-10-05T03:45:11.876Z,7.10
2022-10-05T03:46:11.916Z,8.30
2022-10-05T03:47:11.845Z,7.70
2022-10-05T03:48:11.845Z,8.10
2022-10-05T03:49:11.849Z,9.60
2022-10-05T03:50:11.836Z,9.90
2022-10-05T03:51:11.827Z,7.70
2022-10-05T03:52:11.788Z,10.20
2022-10-05T03:53:11.779Z,10.00
2022-10-05T03:54:11.775Z,10.10
2022-10-05T03:55:11.761Z,8.00
2022-10-05T03:56:11.767Z,8.90
2022-10-05T03:57:11.748Z,7.00
2022-10-05T03:58:11.720Z,7.10
2022-10-05T03:59:11.711Z,7.40
2022-10-05T04:00:12.660Z,10.30
2022-10-05T04:01:11.731Z,9.70
2022-10-05T04:02:11.730Z,8.40
2022-10-05T04:03:11.812Z,9.20
2022-10-05T04:04:11.691Z,8.00
2022-10-05T04:05:11.650Z,9.90
2022-10-05T04:06:11.624Z,9.10
2022-10-05T04:07:11.619Z,7.80
2022-10-05T04:08:11.602Z,8.40
2022-10-05T04:09:11.592Z,6.90
2022-10-05T04:10:11.623Z,8.00
2022-10-05T04:11:11.581Z,7.30
2022-10-05T04:12:11.575Z,7.20
2022-10-05T04:13:11.555Z,7.90
2022-10-05T04:14:11.554Z,7.70
2022-10-05T04:15:15.243Z,7.40
2022-10-05T04:16:12.601Z,8.50
2022-10-05T04:17:11.535Z,7.70
2022-10-05T04:18:11.498Z,9.60
2022-10-05T04:19:11.519Z,6.80
2022-10-05T04:20:11.467Z,8.70
2022-10-05T04:21:11.455Z,9.30
2022-10-05T04:22:12.432Z,9.20
2022-10-05T04:23:11.443Z,7.80
2022-10-05T04:24:11.521Z,8.00
2022-10-05T04:25:11.416Z,8.00
2022-10-05T04:26:11.398Z,8.60
2022-10-05T04:27:11.435Z,8.60
2022-10-05T04:28:11.429Z,8.30
2022-10-05T04:29:11.387Z,8.50
2022-10-05T04:30:12.050Z,7.40
2022-10-05T04:31:11.430Z,7.80
2022-10-05T04:32:11.338Z,9.30
2022-10-05T04:33:11.338Z,9.40
2022-10-05T04:34:11.312Z,8.00
2022-10-05T04:35:11.304Z,9.30
2022-10-05T04:36:11.321Z,9.40
2022-10-05T04:37:11.297Z,7.70
2022-10-05T04:38:11.299Z,7.40
2022-10-05T04:39:11.263Z,8.70
2022-10-05T04:40:11.247Z,8.90
2022-10-05T04:41:11.237Z,8.50
2022-10-05T04:42:11.243Z,9.80
2022-10-05T04:43:11.221Z,7.50
2022-10-05T04:44:11.200Z,8.30
2022-10-05T04:45:11.251Z,7.90
2022-10-05T04:46:11.246Z,9.20
2022-10-05T04:47:11.269Z,8.80
2022-10-05T04:48:11.194Z,7.40
2022-10-05T04:49:11.176Z,7.90
2022-10-05T04:50:11.134Z,8.20
2022-10-05T04:51:11.123Z,9.10
2022-10-05T04:52:11.113Z,9.30
2022-10-05T04:53:11.119Z,8.60
2022-10-05T04:54:11.161Z,8.20
2022-10-05T04:55:11.076Z,6.90
2022-10-05T04:56:11.065Z,8.30
2022-10-05T04:57:11.072Z,9.10
2022-10-05T04:58:11.995Z,7.50
2022-10-05T04:59:11.039Z,9.90
2022-10-05T05:00:11.036Z,9.70
2022-10-05T05:01:11.110Z,7.80
2022-10-05T05:02:11.044Z,9.00
2022-10-05T05:03:11.009Z,8.40
2022-10-05T05:04:11.042Z,7.90
2022-10-05T05:05:10.988Z,9.00
2022-10-05T05:06:17.318Z,9.60
2022-10-05T05:07:11.936Z,10.10
2022-10-05T05:08:10.936Z,9.30
2022-10-05T05:09:10.995Z,8.60
2022-10-05T05:10:10.919Z,9.30
2022-10-05T05:11:15.821Z,7.90
2022-10-05T05:12:11.910Z,10.10
2022-10-05T05:13:10.879Z,8.20
2022-10-05T05:14:10.858Z,8.50
2022-10-05T05:15:10.986Z,9.20
2022-10-05T05:16:11.745Z,7.80
2022-10-05T05:17:13.177Z,9.60
2022-10-05T05:18:10.818Z,7.80
2022-10-05T05:19:10.819Z,7.60
2022-10-05T05:20:10.799Z,8.50
2022-10-05T05:21:10.811Z,9.10
2022-10-05T05:22:10.778Z,8.80
2022-10-05T05:23:11.720Z,10.00
2022-10-05T05:24:10.785Z,8.90
2022-10-05T05:25:10.751Z,9.30
2022-10-05T05:26:10.725Z,8.10
2022-10-05T05:27:10.721Z,9.80
2022-10-05T05:28:10.806Z,9.40
2022-10-05T05:29:10.703Z,9.60
2022-10-05T05:30:10.692Z,8.80
2022-10-05T05:31:10.703Z,7.50
2022-10-05T05:32:10.661Z,8.30
2022-10-05T05:33:10.676Z,7.40
2022-10-05T05:34:10.634Z,8.50
2022-10-05T05:35:10.629Z,8.40
2022-10-05T05:36:10.668Z,8.30
2022-10-05T05:37:10.605Z,10.60
2022-10-05T05:38:10.593Z,8.50
2022-10-05T05:39:11.552Z,7.20
2022-10-05T05:40:10.575Z,8.40
2022-10-05T05:41:10.564Z,8.70
2022-10-05T05:42:10.946Z,9.00
2022-10-05T05:43:10.538Z,7.40
2022-10-05T05:44:10.578Z,7.40
2022-10-05T05:45:10.510Z,8.40
2022-10-05T05:46:10.516Z,7.50
2022-10-05T05:47:10.884Z,9.50
2022-10-05T05:48:10.509Z,8.70
2022-10-05T05:49:10.494Z,8.40
2022-10-05T05:50:10.475Z,8.90
2022-10-05T05:51:10.452Z,8.10
2022-10-05T05:52:10.447Z,9.60
2022-10-05T05:53:10.457Z,7.60
2022-10-05T05:54:10.412Z,8.00
2022-10-05T05:55:10.420Z,8.20
2022-10-05T05:56:10.391Z,6.80
2022-10-05T05:57:10.392Z,7.90
2022-10-05T05:58:10.362Z,7.40
2022-10-05T05:59:10.383Z,8.10
2022-10-05T06:00:10.342Z,9.60
2022-10-05T06:01:25.028Z,6.80
2022-10-05T06:02:11.415Z,7.80
2022-10-05T06:03:10.463Z,8.90
2022-10-05T06:04:10.313Z,9.10
2022-10-05T06:05:10.292Z,5.80
2022-10-05T06:06:10.295Z,8.80
2022-10-05T06:07:10.270Z,7.00
2022-10-05T06:08:10.283Z,9.00
2022-10-05T06:09:11.204Z,7.40
2022-10-05T06:10:10.239Z,6.50
2022-10-05T06:11:10.224Z,6.80
2022-10-05T06:12:10.222Z,8.00
2022-10-05T06:13:10.226Z,10.10
2022-10-05T06:14:10.205Z,7.20
2022-10-05T06:15:10.183Z,8.70
2022-10-05T06:16:10.219Z,8.00
2022-10-05T06:17:10.156Z,7.80
2022-10-05T06:18:10.150Z,8.50
2022-10-05T06:19:10.157Z,7.80
2022-10-05T06:20:10.468Z,8.10
2022-10-05T06:21:10.137Z,7.80
2022-10-05T06:22:10.108Z,9.00
2022-10-05T06:23:10.120Z,11.20
2022-10-05T06:24:10.087Z,7.90
2022-10-05T06:25:10.070Z,8.50
2022-10-05T06:26:11.016Z,7.10
2022-10-05T06:27:10.057Z,8.50
2022-10-05T06:28:10.117Z,8.10
2022-10-05T06:29:10.039Z,7.70
2022-10-05T06:30:10.010Z,7.10
2022-10-05T06:31:10.053Z,8.30
2022-10-05T06:32:10.128Z,8.80
2022-10-05T06:33:09.998Z,8.30
2022-10-05T06:34:11.443Z,8.00
2022-10-05T06:35:09.963Z,6.80
2022-10-05T06:36:10.181Z,8.30
2022-10-05T06:37:09.945Z,9.00
2022-10-05T06:38:09.931Z,6.80
2022-10-05T06:39:09.922Z,6.70
2022-10-05T06:40:09.905Z,33.20
2022-10-05T06:41:09.952Z,33.00
2022-10-05T06:42:09.947Z,15.00
2022-10-05T06:43:09.874Z,12.40
2022-10-05T06:44:09.873Z,8.90
2022-10-05T06:45:09.845Z,9.30
2022-10-05T06:46:09.900Z,6.80
2022-10-05T06:47:09.850Z,9.30
2022-10-05T06:48:09.815Z,6.60
2022-10-05T06:49:09.801Z,8.90
2022-10-05T06:50:10.203Z,7.90
2022-10-05T06:51:09.797Z,8.60
2022-10-05T06:52:10.725Z,7.60
2022-10-05T06:53:09.765Z,8.30
2022-10-05T06:54:09.775Z,6.50
2022-10-05T06:55:14.054Z,7.50
2022-10-05T06:56:09.767Z,8.00
2022-10-05T06:57:09.729Z,6.90
2022-10-05T06:58:09.704Z,7.30
2022-10-05T06:59:09.691Z,7.50
2022-10-05T07:00:09.743Z,6.70
2022-10-05T07:01:10.672Z,8.50
2022-10-05T07:02:09.767Z,7.50
2022-10-05T07:03:10.608Z,6.70
2022-10-05T07:04:09.641Z,10.40
2022-10-05T07:05:09.624Z,7.90
2022-10-05T07:06:09.649Z,14.20
2022-10-05T07:07:09.615Z,7.60
2022-10-05T07:08:11.543Z,9.50
2022-10-05T07:09:09.585Z,5.80
2022-10-05T07:10:09.606Z,6.50
2022-10-05T07:11:09.563Z,8.00
2022-10-05T07:12:09.580Z,7.40
2022-10-05T07:13:09.526Z,7.40
2022-10-05T07:14:09.536Z,6.20
2022-10-05T07:15:09.514Z,7.20
2022-10-05T07:16:09.520Z,6.60
2022-10-05T07:17:09.486Z,6.00
2022-10-05T07:18:10.456Z,7.40
2022-10-05T07:19:10.426Z,8.00
2022-10-05T07:20:09.686Z,7.70
2022-10-05T07:21:10.434Z,6.60
2022-10-05T07:22:10.885Z,7.80
2022-10-05T07:23:10.875Z,5.80
2022-10-05T07:24:11.108Z,7.90
2022-10-05T07:25:09.438Z,8.50
2022-10-05T07:26:10.846Z,7.30
2022-10-05T07:27:10.165Z,7.00
2022-10-05T07:28:09.417Z,8.20
2022-10-05T07:29:09.408Z,6.40
2022-10-05T07:30:09.381Z,10.00
2022-10-05T07:31:09.383Z,8.00
2022-10-05T07:32:09.352Z,7.50
2022-10-05T07:33:10.249Z,7.20
2022-10-05T07:34:09.344Z,9.50
2022-10-05T07:35:10.735Z,11.10
2022-10-05T07:36:09.392Z,7.70
2022-10-05T07:37:09.268Z,9.50
2022-10-05T07:38:09.346Z,9.10
2022-10-05T07:39:09.240Z,7.00
2022-10-05T07:40:09.360Z,7.10
2022-10-05T07:41:09.412Z,9.40
2022-10-05T07:42:09.213Z,7.00
2022-10-05T07:43:09.223Z,6.70
2022-10-05T07:44:12.841Z,7.20
2022-10-05T07:45:09.174Z,8.10
2022-10-05T07:46:09.199Z,7.20
2022-10-05T07:47:09.142Z,6.80
2022-10-05T07:48:09.507Z,8.20
2022-10-05T07:49:09.698Z,5.80
2022-10-05T07:50:09.153Z,7.00
2022-10-05T07:51:09.117Z,6.20
2022-10-05T07:52:09.114Z,8.40
2022-10-05T07:53:09.104Z,7.70
2022-10-05T07:54:10.756Z,7.10
2022-10-05T07:55:09.298Z,6.40
2022-10-05T07:56:09.057Z,7.00
2022-10-05T07:57:10.007Z,6.60
2022-10-05T07:58:09.844Z,6.60
2022-10-05T07:59:09.018Z,7.30
2022-10-05T08:00:09.113Z,8.10
2022-10-05T08:01:09.494Z,6.80
2022-10-05T08:02:09.110Z,8.10
2022-10-05T08:03:10.128Z,7.60
2022-10-05T08:04:09.116Z,7.90
2022-10-05T08:05:09.257Z,6.80
2022-10-05T08:06:09.024Z,7.60
2022-10-05T08:07:10.428Z,7.10
2022-10-05T08:08:10.986Z,6.90
2022-10-05T08:09:08.954Z,6.60
2022-10-05T08:10:08.890Z,6.20
2022-10-05T08:11:08.966Z,7.70
2022-10-05T08:12:08.955Z,6.20
2022-10-05T08:13:08.902Z,5.80
2022-10-05T08:14:10.326Z,7.80
2022-10-05T08:15:09.600Z,7.50
2022-10-05T08:16:10.349Z,5.40
2022-10-05T08:17:08.808Z,5.90
2022-10-05T08:18:08.799Z,5.70
2022-10-05T08:19:08.790Z,7.20
2022-10-05T08:20:08.808Z,6.40
2022-10-05T08:21:09.041Z,7.20
2022-10-05T08:22:08.759Z,6.90
2022-10-05T08:23:08.861Z,9.00
2022-10-05T08:24:08.749Z,6.60
2022-10-05T08:25:08.723Z,8.00
2022-10-05T08:26:09.538Z,6.20
2022-10-05T08:27:08.716Z,7.30
2022-10-05T08:28:08.714Z,5.70
2022-10-05T08:29:13.488Z,6.20
2022-10-05T08:30:10.394Z,5.60
2022-10-05T08:31:08.700Z,7.20
2022-10-05T08:32:08.660Z,6.50
2022-10-05T08:33:09.458Z,6.20
2022-10-05T08:34:09.043Z,6.20
2022-10-05T08:35:09.110Z,5.40
2022-10-05T08:36:09.077Z,5.20
2022-10-05T08:37:10.061Z,5.30
2022-10-05T08:38:08.600Z,9.40
2022-10-05T08:39:08.770Z,6.50
2022-10-05T08:40:08.559Z,4.90
2022-10-05T08:41:08.543Z,5.30
2022-10-05T08:42:08.560Z,5.50
2022-10-05T08:43:09.965Z,6.30
2022-10-05T08:44:09.304Z,6.30
2022-10-05T08:45:08.535Z,4.30
2022-10-05T08:46:09.996Z,6.20
2022-10-05T08:47:08.527Z,4.60
2022-10-05T08:48:08.466Z,5.10
2022-10-05T08:49:12.362Z,4.50
2022-10-05T08:50:08.430Z,5.20
2022-10-05T08:51:08.482Z,5.00
2022-10-05T08:52:08.464Z,5.60
2022-10-05T08:53:08.416Z,7.10
2022-10-05T08:54:08.402Z,5.60
2022-10-05T08:55:08.448Z,5.60
2022-10-05T08:56:08.370Z,5.00
2022-10-05T08:57:08.372Z,5.10
2022-10-05T08:58:08.453Z,6.70
2022-10-05T08:59:08.343Z,5.50
2022-10-05T09:00:08.342Z,4.60
2022-10-05T09:01:08.376Z,6.10
2022-10-05T09:02:08.380Z,6.00
2022-10-05T09:03:08.318Z,4.30
2022-10-05T09:04:08.278Z,5.10
2022-10-05T09:05:09.713Z,5.00
2022-10-05T09:06:08.257Z,6.10
2022-10-05T09:07:08.248Z,4.70
2022-10-05T09:08:08.254Z,5.20
2022-10-05T09:09:08.216Z,5.10
2022-10-05T09:10:08.480Z,4.10
2022-10-05T09:11:08.283Z,4.10
2022-10-05T09:12:09.638Z,5.10
2022-10-05T09:13:09.638Z,4.30
2022-10-05T09:14:08.174Z,5.00
2022-10-05T09:15:24.861Z,4.80
2022-10-05T09:16:09.246Z,4.90
2022-10-05T09:17:08.120Z,5.40
2022-10-05T09:18:09.569Z,4.40
2022-10-05T09:19:08.291Z,5.50
2022-10-05T09:20:08.259Z,4.60
2022-10-05T09:21:08.535Z,6.20
2022-10-05T09:22:09.072Z,6.10
2022-10-05T09:23:08.361Z,4.80
2022-10-05T09:24:09.522Z,4.80
2022-10-05T09:25:08.297Z,4.60
2022-10-05T09:26:08.055Z,4.50
2022-10-05T09:27:08.813Z,5.80
2022-10-05T09:28:08.084Z,3.90
2022-10-05T09:29:08.174Z,4.70
2022-10-05T09:30:07.993Z,5.00
2022-10-05T09:31:08.066Z,5.40
2022-10-05T09:32:10.694Z,5.10
2022-10-05T09:33:08.246Z,4.10
2022-10-05T09:34:09.394Z,4.20
2022-10-05T09:35:08.278Z,4.30
2022-10-05T09:36:08.876Z,4.70
2022-10-05T09:37:07.905Z,4.40
2022-10-05T09:38:08.736Z,4.20
2022-10-05T09:39:08.748Z,4.40
2022-10-05T09:40:07.920Z,3.90
2022-10-05T09:41:07.856Z,4.30
2022-10-05T09:42:07.949Z,4.70
2022-10-05T09:43:07.848Z,5.70
2022-10-05T09:44:07.834Z,3.70
2022-10-05T09:45:07.843Z,3.30
2022-10-05T09:46:07.974Z,5.70
2022-10-05T09:47:08.745Z,4.10
2022-10-05T09:48:07.781Z,6.20
2022-10-05T09:49:07.776Z,4.80
2022-10-05T09:50:07.757Z,6.30
2022-10-05T09:51:07.807Z,4.10
2022-10-05T09:52:08.542Z,3.70
2022-10-05T09:53:07.727Z,6.50
2022-10-05T09:54:07.718Z,4.10
2022-10-05T09:55:07.740Z,5.10
2022-10-05T09:56:07.702Z,4.80
2022-10-05T09:57:07.684Z,4.70
2022-10-05T09:58:07.667Z,3.60
2022-10-05T09:59:07.677Z,3.90
2022-10-05T10:01:15.833Z,3.70
2022-10-05T10:02:08.732Z,4.60
2022-10-05T10:03:07.760Z,4.40
2022-10-05T10:04:07.645Z,3.50
2022-10-05T10:05:07.592Z,3.60
2022-10-05T10:06:07.597Z,3.40
2022-10-05T10:07:07.569Z,4.30
2022-10-05T10:08:07.583Z,4.20
2022-10-05T10:09:07.536Z,4.70
2022-10-05T10:10:07.550Z,3.90
2022-10-05T10:11:07.524Z,3.70
2022-10-05T10:12:07.508Z,4.00
2022-10-05T10:13:08.494Z,3.90
2022-10-05T10:14:07.523Z,3.60
2022-10-05T10:15:07.484Z,3.40
2022-10-05T10:16:07.496Z,4.40
2022-10-05T10:17:08.400Z,3.30
2022-10-05T10:18:07.450Z,4.30
2022-10-05T10:19:07.458Z,3.70
2022-10-05T10:20:07.517Z,5.70
2022-10-05T10:21:08.379Z,4.80
2022-10-05T10:22:07.488Z,3.70
2022-10-05T10:23:07.393Z,4.30
2022-10-05T10:24:07.498Z,4.30
2022-10-05T10:25:07.374Z,4.30
2022-10-05T10:26:07.357Z,4.50
2022-10-05T10:27:07.918Z,3.80
2022-10-05T10:28:07.381Z,4.10
2022-10-05T10:29:08.780Z,4.30
2022-10-05T10:30:07.341Z,3.40
2022-10-05T10:31:07.319Z,7.70
2022-10-05T10:32:07.553Z,4.50
2022-10-05T10:33:07.489Z,6.30
2022-10-05T10:34:07.279Z,4.10
2022-10-05T10:35:07.265Z,4.40
2022-10-05T10:36:07.385Z,3.70
2022-10-05T10:37:07.232Z,4.00
2022-10-05T10:38:07.379Z,3.90
2022-10-05T10:39:07.234Z,4.10
2022-10-05T10:40:07.377Z,2.10
2022-10-05T10:41:08.012Z,2.70
2022-10-05T10:42:07.195Z,2.40
2022-10-05T10:43:07.332Z,2.20
2022-10-05T10:44:07.164Z,4.20
2022-10-05T10:45:07.174Z,2.30
2022-10-05T10:46:07.251Z,3.70
2022-10-05T10:47:07.367Z,2.00
2022-10-05T10:48:07.118Z,2.40
2022-10-05T10:49:07.128Z,2.10
2022-10-05T10:50:07.116Z,1.80
2022-10-05T10:51:07.175Z,2.70
2022-10-05T10:52:07.057Z,1.90
2022-10-05T10:53:07.051Z,3.50
2022-10-05T10:54:07.086Z,2.40
2022-10-05T10:55:07.041Z,2.80
2022-10-05T10:56:07.011Z,2.10
2022-10-05T10:57:07.021Z,2.70
2022-10-05T10:58:07.020Z,2.70
2022-10-05T10:59:07.023Z,2.60
2022-10-05T11:00:07.061Z,1.50
2022-10-05T11:01:06.969Z,3.10
2022-10-05T11:02:07.023Z,2.70
2022-10-05T11:03:06.975Z,2.10
2022-10-05T11:04:07.072Z,1.90
2022-10-05T11:05:06.919Z,3.20
2022-10-05T11:06:06.934Z,2.00
2022-10-05T11:07:06.900Z,1.60
2022-10-05T11:08:06.886Z,4.80
2022-10-05T11:09:06.884Z,2.30
2022-10-05T11:10:06.861Z,1.60
2022-10-05T11:11:06.898Z,2.70
2022-10-05T11:12:06.843Z,1.70
2022-10-05T11:13:06.994Z,3.00
2022-10-05T11:14:08.268Z,1.50
2022-10-05T11:15:07.788Z,2.40
2022-10-05T11:17:06.828Z,2.20
2022-10-05T11:18:06.768Z,2.50
2022-10-05T11:19:06.755Z,1.80
2022-10-05T11:20:06.821Z,3.00
2022-10-05T11:21:06.889Z,2.40
2022-10-05T11:22:06.719Z,2.00
2022-10-05T11:23:06.748Z,2.10
2022-10-05T11:24:06.697Z,2.00
2022-10-05T11:25:06.688Z,3.90
2022-10-05T11:26:06.693Z,2.20
2022-10-05T11:27:06.679Z,2.00
2022-10-05T11:28:06.677Z,1.70
2022-10-05T11:29:06.681Z,1.80
2022-10-05T11:30:06.723Z,1.70
2022-10-05T11:31:06.671Z,2.10
2022-10-05T11:32:06.640Z,2.40
2022-10-05T11:33:06.619Z,1.60
2022-10-05T11:34:06.634Z,2.90
2022-10-05T11:35:06.603Z,1.60
2022-10-05T11:36:06.562Z,2.40
2022-10-05T11:37:06.564Z,3.30
2022-10-05T11:38:06.541Z,2.10
2022-10-05T11:39:06.530Z,1.90
2022-10-05T11:40:06.542Z,2.70
2022-10-05T11:41:06.510Z,1.90
2022-10-05T11:42:06.495Z,1.70
2022-10-05T11:43:06.573Z,8.00
2022-10-05T11:44:07.203Z,2.00
2022-10-05T11:45:06.584Z,3.70
2022-10-05T11:46:07.528Z,2.50
2022-10-05T11:47:06.451Z,4.70
2022-10-05T11:48:06.541Z,2.50
2022-10-05T11:49:06.450Z,1.70
2022-10-05T11:50:06.453Z,2.60
2022-10-05T11:51:06.413Z,1.90
2022-10-05T11:52:06.381Z,2.60
2022-10-05T11:53:06.416Z,1.70
2022-10-05T11:54:06.366Z,1.90
2022-10-05T11:55:11.105Z,2.30
2022-10-05T11:56:07.346Z,2.50
2022-10-05T11:57:06.451Z,2.20
2022-10-05T11:58:06.349Z,2.20
2022-10-05T11:59:06.404Z,2.50
2022-10-05T12:00:06.414Z,2.10
2022-10-05T12:01:06.307Z,4.20
2022-10-05T12:02:06.307Z,2.70
2022-10-05T12:03:06.388Z,2.70
2022-10-05T12:04:06.340Z,1.90
2022-10-05T12:05:06.241Z,2.20
2022-10-05T12:06:06.563Z,1.40
2022-10-05T12:07:06.223Z,1.90
2022-10-05T12:08:06.235Z,2.30
2022-10-05T12:09:06.604Z,2.20
2022-10-05T12:10:06.485Z,4.50
2022-10-05T12:11:06.553Z,2.80
2022-10-05T12:12:06.212Z,2.10
2022-10-05T12:13:06.180Z,3.20
2022-10-05T12:14:06.178Z,2.20
2022-10-05T12:15:06.596Z,2.80
2022-10-05T12:16:06.733Z,2.90
2022-10-05T12:17:06.589Z,3.40
2022-10-05T12:18:06.285Z,3.40
2022-10-05T12:19:06.598Z,3.10
2022-10-05T12:20:06.239Z,2.10
2022-10-05T12:21:06.057Z,2.70
2022-10-05T12:22:06.836Z,4.20
2022-10-05T12:23:07.013Z,3.30
2022-10-05T12:24:06.420Z,3.30
2022-10-05T12:25:06.801Z,3.40
2022-10-05T12:26:06.044Z,3.90
2022-10-05T12:27:06.291Z,3.10
2022-10-05T12:28:06.082Z,3.30
2022-10-05T12:29:06.673Z,1.90
2022-10-05T12:30:06.134Z,3.30
2022-10-05T12:31:06.039Z,2.00
2022-10-05T12:32:06.990Z,1.90
2022-10-05T12:33:05.948Z,2.60
2022-10-05T12:34:05.981Z,2.70
2022-10-05T12:35:05.912Z,2.60
2022-10-05T12:36:05.893Z,2.60
2022-10-05T12:37:06.132Z,3.00
2022-10-05T12:38:05.937Z,2.70
2022-10-05T12:39:05.880Z,3.30
2022-10-05T12:40:05.876Z,1.90
2022-10-05T12:41:05.848Z,2.50
2022-10-05T12:42:05.895Z,2.20
2022-10-05T12:43:05.823Z,1.80
2022-10-05T12:44:06.074Z,3.60
2022-10-05T12:45:05.803Z,1.70
2022-10-05T12:46:05.834Z,2.80
2022-10-05T12:47:05.799Z,3.30
2022-10-05T12:48:05.762Z,3.40
2022-10-05T12:49:05.763Z,3.20
2022-10-05T12:50:05.765Z,3.20
2022-10-05T12:51:05.925Z,2.00
2022-10-05T12:52:05.746Z,3.30
2022-10-05T12:53:05.748Z,4.60
2022-10-05T12:54:05.759Z,2.30
2022-10-05T12:55:06.351Z,1.90
2022-10-05T12:56:05.748Z,3.40
2022-10-05T12:57:06.650Z,3.50
2022-10-05T12:58:05.792Z,2.30
2022-10-05T12:59:06.543Z,4.40
2022-10-05T13:00:05.641Z,3.40
2022-10-05T13:01:05.795Z,2.10
2022-10-05T13:02:05.719Z,2.30
2022-10-05T13:03:05.733Z,3.20
2022-10-05T13:04:05.625Z,2.60
2022-10-05T13:05:05.623Z,2.50
2022-10-05T13:06:05.625Z,3.00
2022-10-05T13:07:05.565Z,2.70
2022-10-05T13:08:06.660Z,2.80
2022-10-05T13:09:05.566Z,2.30
2022-10-05T13:10:05.687Z,2.20
2022-10-05T13:11:05.540Z,2.10
2022-10-05T13:12:06.354Z,4.30
2022-10-05T13:13:05.500Z,2.40
2022-10-05T13:14:05.664Z,1.70
2022-10-05T13:15:06.021Z,2.00
2022-10-05T13:16:05.554Z,2.60
2022-10-05T13:17:05.455Z,1.60
2022-10-05T13:18:05.512Z,3.40
2022-10-05T13:19:05.465Z,2.90